sensor_id;sensor_type;location;lat;lon;timestamp;P1;durP1;ratioP1;P2;durP2;ratioP2
18716;SDS011;9487;50.892;6.906;2023-07-09T00:01:09;7.40;;;6.55;;
18716;SDS011;9487;50.892;6.906;2023-07-09T00:03:39;7.32;;;6.63;;
18716;SDS011;9487;50.892;6.906;2023-07-09T00:06:07;7.95;;;6.50;;
18716;SDS011;9487;50.892;6.906;2023-07-09T00:08:35;7.03;;;6.35;;
18716;SDS011;9487;50.892;6.906;2023-07-09T00:11:05;7.97;;;7.18;;
18716;SDS011;9487;50.892;6.906;2023-07-09T00:13:34;8.02;;;7.03;;
18716;SDS011;9487;50.892;6.906;2023-07-09T00:16:02;8.57;;;6.80;;
18716;SDS011;9487;50.892;6.906;2023-07-09T00:18:39;7.72;;;6.68;;
18716;SDS011;9487;50.892;6.906;2023-07-09T00:21:06;8.90;;;6.90;;
18716;SDS011;9487;50.892;6.906;2023-07-09T00:23:35;7.72;;;6.53;;
18716;SDS011;9487;50.892;6.906;2023-07-09T00:26:04;8.10;;;6.95;;
18716;SDS011;9487;50.892;6.906;2023-07-09T00:28:34;8.07;;;7.00;;
18716;SDS011;9487;50.892;6.906;2023-07-09T00:31:03;9.75;;;6.43;;
18716;SDS011;9487;50.892;6.906;2023-07-09T00:33:30;7.85;;;6.80;;
18716;SDS011;9487;50.892;6.906;2023-07-09T00:35:59;7.45;;;6.72;;
18716;SDS011;9487;50.892;6.906;2023-07-09T00:38:26;9.30;;;7.10;;
18716;SDS011;9487;50.892;6.906;2023-07-09T00:41:01;7.30;;;6.60;;
18716;SDS011;9487;50.892;6.906;2023-07-09T00:43:31;6.97;;;6.28;;
18716;SDS011;9487;50.892;6.906;2023-07-09T00:46:10;8.82;;;6.40;;
18716;SDS011;9487;50.892;6.906;2023-07-09T00:48:42;8.20;;;6.65;;
18716;SDS011;9487;50.892;6.906;2023-07-09T00:51:14;7.53;;;6.55;;
18716;SDS011;9487;50.892;6.906;2023-07-09T00:53:45;7.32;;;6.63;;
18716;SDS011;9487;50.892;6.906;2023-07-09T00:56:16;7.68;;;6.70;;
18716;SDS011;9487;50.892;6.906;2023-07-09T00:58:46;10.70;;;6.57;;
18716;SDS011;9487;50.892;6.906;2023-07-09T01:01:17;8.95;;;6.30;;
18716;SDS011;9487;50.892;6.906;2023-07-09T01:03:45;8.57;;;7.00;;
18716;SDS011;9487;50.892;6.906;2023-07-09T01:06:18;8.25;;;7.03;;
18716;SDS011;9487;50.892;6.906;2023-07-09T01:08:55;7.60;;;6.88;;
18716;SDS011;9487;50.892;6.906;2023-07-09T01:11:22;8.23;;;7.07;;
18716;SDS011;9487;50.892;6.906;2023-07-09T01:13:50;8.35;;;7.47;;
18716;SDS011;9487;50.892;6.906;2023-07-09T01:16:19;8.43;;;7.18;;
18716;SDS011;9487;50.892;6.906;2023-07-09T01:18:50;8.90;;;7.15;;
18716;SDS011;9487;50.892;6.906;2023-07-09T01:21:18;8.50;;;7.60;;
18716;SDS011;9487;50.892;6.906;2023-07-09T01:23:46;8.90;;;7.97;;
18716;SDS011;9487;50.892;6.906;2023-07-09T01:26:15;7.75;;;6.75;;
18716;SDS011;9487;50.892;6.906;2023-07-09T01:28:45;7.78;;;7.03;;
18716;SDS011;9487;50.892;6.906;2023-07-09T01:31:14;9.02;;;6.90;;
18716;SDS011;9487;50.892;6.906;2023-07-09T01:33:41;8.13;;;6.47;;
18716;SDS011;9487;50.892;6.906;2023-07-09T01:36:09;9.32;;;7.63;;
18716;SDS011;9487;50.892;6.906;2023-07-09T01:38:40;7.60;;;6.90;;
18716;SDS011;9487;50.892;6.906;2023-07-09T01:41:07;7.93;;;7.03;;
18716;SDS011;9487;50.892;6.906;2023-07-09T01:43:38;7.87;;;7.07;;
18716;SDS011;9487;50.892;6.906;2023-07-09T01:46:06;9.37;;;7.70;;
18716;SDS011;9487;50.892;6.906;2023-07-09T01:48:33;8.45;;;7.38;;
18716;SDS011;9487;50.892;6.906;2023-07-09T01:51:06;7.67;;;6.80;;
18716;SDS011;9487;50.892;6.906;2023-07-09T01:53:33;8.10;;;6.80;;
18716;SDS011;9487;50.892;6.906;2023-07-09T01:56:02;7.97;;;6.70;;
18716;SDS011;9487;50.892;6.906;2023-07-09T01:58:32;7.73;;;6.93;;
18716;SDS011;9487;50.892;6.906;2023-07-09T02:00:59;7.60;;;6.70;;
18716;SDS011;9487;50.892;6.906;2023-07-09T02:03:26;7.70;;;6.50;;
18716;SDS011;9487;50.892;6.906;2023-07-09T02:05:54;7.27;;;6.57;;
18716;SDS011;9487;50.892;6.906;2023-07-09T02:08:22;7.77;;;6.73;;
18716;SDS011;9487;50.892;6.906;2023-07-09T02:10:49;8.40;;;7.27;;
18716;SDS011;9487;50.892;6.906;2023-07-09T02:13:18;8.27;;;7.10;;
18716;SDS011;9487;50.892;6.906;2023-07-09T02:15:45;7.90;;;7.10;;
18716;SDS011;9487;50.892;6.906;2023-07-09T02:18:12;8.10;;;7.13;;
18716;SDS011;9487;50.892;6.906;2023-07-09T02:20:40;8.60;;;7.10;;
18716;SDS011;9487;50.892;6.906;2023-07-09T02:23:07;7.60;;;6.90;;
18716;SDS011;9487;50.892;6.906;2023-07-09T02:25:34;8.03;;;7.23;;
18716;SDS011;9487;50.892;6.906;2023-07-09T02:28:01;7.97;;;7.17;;
18716;SDS011;9487;50.892;6.906;2023-07-09T02:30:29;9.63;;;7.23;;
18716;SDS011;9487;50.892;6.906;2023-07-09T02:32:56;8.70;;;7.03;;
18716;SDS011;9487;50.892;6.906;2023-07-09T02:35:23;9.70;;;6.77;;
18716;SDS011;9487;50.892;6.906;2023-07-09T02:37:51;8.23;;;7.27;;
18716;SDS011;9487;50.892;6.906;2023-07-09T02:40:18;10.27;;;7.03;;
18716;SDS011;9487;50.892;6.906;2023-07-09T02:42:45;8.63;;;7.63;;
18716;SDS011;9487;50.892;6.906;2023-07-09T02:45:12;7.77;;;6.77;;
18716;SDS011;9487;50.892;6.906;2023-07-09T02:47:41;9.00;;;7.70;;
18716;SDS011;9487;50.892;6.906;2023-07-09T02:50:08;8.40;;;7.50;;
18716;SDS011;9487;50.892;6.906;2023-07-09T02:52:36;7.90;;;7.10;;
18716;SDS011;9487;50.892;6.906;2023-07-09T02:55:03;9.77;;;7.57;;
18716;SDS011;9487;50.892;6.906;2023-07-09T02:57:30;8.63;;;7.67;;
18716;SDS011;9487;50.892;6.906;2023-07-09T02:59:57;8.47;;;7.23;;
18716;SDS011;9487;50.892;6.906;2023-07-09T03:02:24;9.43;;;7.83;;
18716;SDS011;9487;50.892;6.906;2023-07-09T03:04:53;8.13;;;7.10;;
18716;SDS011;9487;50.892;6.906;2023-07-09T03:07:19;7.80;;;7.07;;
18716;SDS011;9487;50.892;6.906;2023-07-09T03:09:46;9.90;;;7.60;;
18716;SDS011;9487;50.892;6.906;2023-07-09T03:12:14;9.37;;;7.40;;
18716;SDS011;9487;50.892;6.906;2023-07-09T03:14:41;8.30;;;7.50;;
18716;SDS011;9487;50.892;6.906;2023-07-09T03:17:08;9.67;;;7.43;;
18716;SDS011;9487;50.892;6.906;2023-07-09T03:19:35;9.63;;;7.33;;
18716;SDS011;9487;50.892;6.906;2023-07-09T03:22:03;10.77;;;8.00;;
18716;SDS011;9487;50.892;6.906;2023-07-09T03:24:33;10.70;;;7.33;;
18716;SDS011;9487;50.892;6.906;2023-07-09T03:26:59;9.50;;;7.30;;
18716;SDS011;9487;50.892;6.906;2023-07-09T03:29:27;8.13;;;7.10;;
18716;SDS011;9487;50.892;6.906;2023-07-09T03:31:54;8.27;;;7.47;;
18716;SDS011;9487;50.892;6.906;2023-07-09T03:34:21;8.97;;;7.30;;
18716;SDS011;9487;50.892;6.906;2023-07-09T03:36:48;9.63;;;7.77;;
18716;SDS011;9487;50.892;6.906;2023-07-09T03:39:18;9.20;;;7.93;;
18716;SDS011;9487;50.892;6.906;2023-07-09T03:41:45;8.70;;;7.37;;
18716;SDS011;9487;50.892;6.906;2023-07-09T03:44:12;9.60;;;7.77;;
18716;SDS011;9487;50.892;6.906;2023-07-09T03:46:39;10.83;;;7.80;;
18716;SDS011;9487;50.892;6.906;2023-07-09T03:49:06;10.37;;;7.87;;
18716;SDS011;9487;50.892;6.906;2023-07-09T03:51:33;10.20;;;7.57;;
18716;SDS011;9487;50.892;6.906;2023-07-09T03:54:00;9.83;;;7.43;;
18716;SDS011;9487;50.892;6.906;2023-07-09T03:56:28;8.73;;;7.40;;
18716;SDS011;9487;50.892;6.906;2023-07-09T03:58:55;8.33;;;6.47;;
18716;SDS011;9487;50.892;6.906;2023-07-09T04:01:22;7.77;;;6.97;;
18716;SDS011;9487;50.892;6.906;2023-07-09T04:03:49;8.77;;;7.70;;
18716;SDS011;9487;50.892;6.906;2023-07-09T04:06:16;8.97;;;7.97;;
18716;SDS011;9487;50.892;6.906;2023-07-09T04:08:43;10.20;;;7.20;;
18716;SDS011;9487;50.892;6.906;2023-07-09T04:11:10;8.30;;;7.03;;
18716;SDS011;9487;50.892;6.906;2023-07-09T04:13:39;7.90;;;6.87;;
18716;SDS011;9487;50.892;6.906;2023-07-09T04:16:06;9.97;;;7.57;;
18716;SDS011;9487;50.892;6.906;2023-07-09T04:18:34;9.70;;;6.90;;
18716;SDS011;9487;50.892;6.906;2023-07-09T04:21:01;8.03;;;6.40;;
18716;SDS011;9487;50.892;6.906;2023-07-09T04:23:28;8.17;;;6.47;;
18716;SDS011;9487;50.892;6.906;2023-07-09T04:25:55;8.03;;;6.67;;
18716;SDS011;9487;50.892;6.906;2023-07-09T04:28:22;8.20;;;7.23;;
18716;SDS011;9487;50.892;6.906;2023-07-09T04:30:51;8.13;;;6.87;;
18716;SDS011;9487;50.892;6.906;2023-07-09T04:33:19;8.80;;;7.20;;
18716;SDS011;9487;50.892;6.906;2023-07-09T04:35:46;8.03;;;6.83;;
18716;SDS011;9487;50.892;6.906;2023-07-09T04:38:14;7.23;;;6.27;;
18716;SDS011;9487;50.892;6.906;2023-07-09T04:40:42;7.73;;;6.33;;
18716;SDS011;9487;50.892;6.906;2023-07-09T04:43:11;10.03;;;6.90;;
18716;SDS011;9487;50.892;6.906;2023-07-09T04:45:38;7.13;;;6.40;;
18716;SDS011;9487;50.892;6.906;2023-07-09T04:48:07;9.00;;;6.53;;
18716;SDS011;9487;50.892;6.906;2023-07-09T04:50:34;8.60;;;6.40;;
18716;SDS011;9487;50.892;6.906;2023-07-09T04:53:01;6.67;;;6.07;;
18716;SDS011;9487;50.892;6.906;2023-07-09T04:55:28;8.73;;;6.73;;
18716;SDS011;9487;50.892;6.906;2023-07-09T04:57:55;7.60;;;6.43;;
18716;SDS011;9487;50.892;6.906;2023-07-09T05:00:23;9.73;;;6.47;;
18716;SDS011;9487;50.892;6.906;2023-07-09T05:02:50;6.68;;;5.90;;
18716;SDS011;9487;50.892;6.906;2023-07-09T05:05:18;8.17;;;6.20;;
18716;SDS011;9487;50.892;6.906;2023-07-09T05:07:45;8.07;;;6.70;;
18716;SDS011;9487;50.892;6.906;2023-07-09T05:10:12;7.93;;;6.18;;
18716;SDS011;9487;50.892;6.906;2023-07-09T05:12:46;9.95;;;7.10;;
18716;SDS011;9487;50.892;6.906;2023-07-09T05:15:15;7.00;;;6.28;;
18716;SDS011;9487;50.892;6.906;2023-07-09T05:17:43;8.13;;;6.35;;
18716;SDS011;9487;50.892;6.906;2023-07-09T05:20:10;7.45;;;6.10;;
18716;SDS011;9487;50.892;6.906;2023-07-09T05:22:39;6.97;;;6.20;;
18716;SDS011;9487;50.892;6.906;2023-07-09T05:25:06;6.78;;;6.07;;
18716;SDS011;9487;50.892;6.906;2023-07-09T05:27:34;8.93;;;6.35;;
18716;SDS011;9487;50.892;6.906;2023-07-09T05:30:03;7.60;;;6.13;;
18716;SDS011;9487;50.892;6.906;2023-07-09T05:32:31;7.95;;;6.10;;
18716;SDS011;9487;50.892;6.906;2023-07-09T05:34:59;7.40;;;6.50;;
18716;SDS011;9487;50.892;6.906;2023-07-09T05:37:26;6.95;;;6.25;;
18716;SDS011;9487;50.892;6.906;2023-07-09T05:39:54;7.75;;;6.70;;
18716;SDS011;9487;50.892;6.906;2023-07-09T05:42:21;6.57;;;5.53;;
18716;SDS011;9487;50.892;6.906;2023-07-09T05:44:48;6.88;;;6.18;;
18716;SDS011;9487;50.892;6.906;2023-07-09T05:47:15;7.07;;;5.82;;
18716;SDS011;9487;50.892;6.906;2023-07-09T05:49:43;7.78;;;6.10;;
18716;SDS011;9487;50.892;6.906;2023-07-09T05:52:14;6.30;;;5.63;;
18716;SDS011;9487;50.892;6.906;2023-07-09T05:54:41;6.82;;;6.13;;
18716;SDS011;9487;50.892;6.906;2023-07-09T05:57:10;7.45;;;6.10;;
18716;SDS011;9487;50.892;6.906;2023-07-09T05:59:39;7.75;;;5.85;;
18716;SDS011;9487;50.892;6.906;2023-07-09T06:02:08;8.80;;;6.03;;
18716;SDS011;9487;50.892;6.906;2023-07-09T06:04:37;6.45;;;5.70;;
18716;SDS011;9487;50.892;6.906;2023-07-09T06:07:04;7.00;;;6.30;;
18716;SDS011;9487;50.892;6.906;2023-07-09T06:09:34;7.70;;;5.82;;
18716;SDS011;9487;50.892;6.906;2023-07-09T06:12:01;7.15;;;5.97;;
18716;SDS011;9487;50.892;6.906;2023-07-09T06:14:30;6.78;;;5.85;;
18716;SDS011;9487;50.892;6.906;2023-07-09T06:16:58;7.80;;;6.30;;
18716;SDS011;9487;50.892;6.906;2023-07-09T06:19:26;7.55;;;5.72;;
18716;SDS011;9487;50.892;6.906;2023-07-09T06:21:53;6.65;;;6.03;;
18716;SDS011;9487;50.892;6.906;2023-07-09T06:24:21;7.20;;;6.18;;
18716;SDS011;9487;50.892;6.906;2023-07-09T06:26:50;8.73;;;6.20;;
18716;SDS011;9487;50.892;6.906;2023-07-09T06:29:17;6.45;;;5.85;;
18716;SDS011;9487;50.892;6.906;2023-07-09T06:31:46;7.60;;;5.82;;
18716;SDS011;9487;50.892;6.906;2023-07-09T06:34:13;7.18;;;6.25;;
18716;SDS011;9487;50.892;6.906;2023-07-09T06:36:40;6.93;;;5.90;;
18716;SDS011;9487;50.892;6.906;2023-07-09T06:39:07;5.88;;;5.20;;
18716;SDS011;9487;50.892;6.906;2023-07-09T06:41:34;7.80;;;6.20;;
18716;SDS011;9487;50.892;6.906;2023-07-09T06:44:05;6.95;;;5.63;;
18716;SDS011;9487;50.892;6.906;2023-07-09T06:46:33;8.60;;;6.20;;
18716;SDS011;9487;50.892;6.906;2023-07-09T06:49:02;7.10;;;6.40;;
18716;SDS011;9487;50.892;6.906;2023-07-09T06:51:30;6.57;;;5.97;;
18716;SDS011;9487;50.892;6.906;2023-07-09T06:53:58;8.63;;;5.95;;
18716;SDS011;9487;50.892;6.906;2023-07-09T06:56:25;7.32;;;5.78;;
18716;SDS011;9487;50.892;6.906;2023-07-09T06:58:52;8.48;;;5.90;;
18716;SDS011;9487;50.892;6.906;2023-07-09T07:01:19;6.38;;;5.78;;
18716;SDS011;9487;50.892;6.906;2023-07-09T07:03:45;6.40;;;5.78;;
18716;SDS011;9487;50.892;6.906;2023-07-09T07:06:14;7.55;;;6.00;;
18716;SDS011;9487;50.892;6.906;2023-07-09T07:08:41;7.35;;;6.20;;
18716;SDS011;9487;50.892;6.906;2023-07-09T07:11:08;8.70;;;5.88;;
18716;SDS011;9487;50.892;6.906;2023-07-09T07:13:36;6.38;;;5.78;;
18716;SDS011;9487;50.892;6.906;2023-07-09T07:16:06;7.80;;;5.85;;
18716;SDS011;9487;50.892;6.906;2023-07-09T07:18:34;7.07;;;5.55;;
18716;SDS011;9487;50.892;6.906;2023-07-09T07:21:01;7.10;;;5.78;;
18716;SDS011;9487;50.892;6.906;2023-07-09T07:23:30;5.63;;;5.13;;
18716;SDS011;9487;50.892;6.906;2023-07-09T07:26:00;7.22;;;5.70;;
18716;SDS011;9487;50.892;6.906;2023-07-09T07:28:27;8.57;;;6.03;;
18716;SDS011;9487;50.892;6.906;2023-07-09T07:30:57;7.65;;;5.60;;
18716;SDS011;9487;50.892;6.906;2023-07-09T07:33:25;8.70;;;6.47;;
18716;SDS011;9487;50.892;6.906;2023-07-09T07:35:52;7.70;;;6.20;;
18716;SDS011;9487;50.892;6.906;2023-07-09T07:38:22;6.95;;;5.70;;
18716;SDS011;9487;50.892;6.906;2023-07-09T07:40:50;7.70;;;6.10;;
18716;SDS011;9487;50.892;6.906;2023-07-09T07:43:17;6.90;;;5.60;;
18716;SDS011;9487;50.892;6.906;2023-07-09T07:45:44;6.57;;;5.90;;
18716;SDS011;9487;50.892;6.906;2023-07-09T07:48:12;6.55;;;5.63;;
18716;SDS011;9487;50.892;6.906;2023-07-09T07:50:39;6.32;;;5.40;;
18716;SDS011;9487;50.892;6.906;2023-07-09T07:53:06;6.53;;;5.80;;
18716;SDS011;9487;50.892;6.906;2023-07-09T07:55:34;6.18;;;5.57;;
18716;SDS011;9487;50.892;6.906;2023-07-09T07:58:03;6.63;;;5.63;;
18716;SDS011;9487;50.892;6.906;2023-07-09T08:00:30;6.53;;;5.93;;
18716;SDS011;9487;50.892;6.906;2023-07-09T08:02:57;6.35;;;5.78;;
18716;SDS011;9487;50.892;6.906;2023-07-09T08:05:25;6.20;;;5.60;;
18716;SDS011;9487;50.892;6.906;2023-07-09T08:07:52;8.77;;;6.07;;
18716;SDS011;9487;50.892;6.906;2023-07-09T08:10:19;5.93;;;5.22;;
18716;SDS011;9487;50.892;6.906;2023-07-09T08:12:46;6.03;;;5.38;;
18716;SDS011;9487;50.892;6.906;2023-07-09T08:15:15;6.70;;;5.80;;
18716;SDS011;9487;50.892;6.906;2023-07-09T08:17:44;6.80;;;6.13;;
18716;SDS011;9487;50.892;6.906;2023-07-09T08:20:11;6.38;;;5.65;;
18716;SDS011;9487;50.892;6.906;2023-07-09T08:22:38;6.43;;;5.72;;
18716;SDS011;9487;50.892;6.906;2023-07-09T08:25:05;8.27;;;6.05;;
18716;SDS011;9487;50.892;6.906;2023-07-09T08:27:33;7.53;;;5.97;;
18716;SDS011;9487;50.892;6.906;2023-07-09T08:30:01;7.10;;;6.40;;
18716;SDS011;9487;50.892;6.906;2023-07-09T08:32:30;7.53;;;5.93;;
18716;SDS011;9487;50.892;6.906;2023-07-09T08:34:57;8.43;;;5.65;;
18716;SDS011;9487;50.892;6.906;2023-07-09T08:37:24;6.60;;;5.85;;
18716;SDS011;9487;50.892;6.906;2023-07-09T08:39:51;6.00;;;5.50;;
18716;SDS011;9487;50.892;6.906;2023-07-09T08:42:21;7.40;;;5.60;;
18716;SDS011;9487;50.892;6.906;2023-07-09T08:45:03;6.47;;;5.60;;
18716;SDS011;9487;50.892;6.906;2023-07-09T08:47:40;6.75;;;5.53;;
18716;SDS011;9487;50.892;6.906;2023-07-09T08:50:14;6.35;;;5.63;;
18716;SDS011;9487;50.892;6.906;2023-07-09T08:52:45;7.25;;;6.22;;
18716;SDS011;9487;50.892;6.906;2023-07-09T08:55:15;7.10;;;6.40;;
18716;SDS011;9487;50.892;6.906;2023-07-09T08:57:47;6.38;;;5.65;;
18716;SDS011;9487;50.892;6.906;2023-07-09T09:00:17;6.18;;;5.57;;
18716;SDS011;9487;50.892;6.906;2023-07-09T09:02:50;7.05;;;5.85;;
18716;SDS011;9487;50.892;6.906;2023-07-09T09:05:19;9.00;;;6.72;;
18716;SDS011;9487;50.892;6.906;2023-07-09T09:07:49;6.30;;;5.38;;
18716;SDS011;9487;50.892;6.906;2023-07-09T09:10:21;6.63;;;5.97;;
18716;SDS011;9487;50.892;6.906;2023-07-09T09:13:02;5.97;;;5.47;;
18716;SDS011;9487;50.892;6.906;2023-07-09T09:15:38;6.65;;;5.97;;
18716;SDS011;9487;50.892;6.906;2023-07-09T09:20:57;7.50;;;5.72;;
18716;SDS011;9487;50.892;6.906;2023-07-09T09:23:36;8.05;;;5.90;;
18716;SDS011;9487;50.892;6.906;2023-07-09T09:26:09;6.88;;;6.18;;
18716;SDS011;9487;50.892;6.906;2023-07-09T09:28:43;6.25;;;5.65;;
18716;SDS011;9487;50.892;6.906;2023-07-09T09:31:11;7.07;;;6.38;;
18716;SDS011;9487;50.892;6.906;2023-07-09T09:33:52;6.53;;;5.93;;
18716;SDS011;9487;50.892;6.906;2023-07-09T09:36:20;8.15;;;5.57;;
18716;SDS011;9487;50.892;6.906;2023-07-09T09:38:49;6.72;;;6.13;;
18716;SDS011;9487;50.892;6.906;2023-07-09T09:41:17;7.93;;;6.30;;
18716;SDS011;9487;50.892;6.906;2023-07-09T09:43:46;6.07;;;5.53;;
18716;SDS011;9487;50.892;6.906;2023-07-09T09:46:16;6.28;;;5.70;;
18716;SDS011;9487;50.892;6.906;2023-07-09T09:48:46;7.20;;;6.10;;
18716;SDS011;9487;50.892;6.906;2023-07-09T09:51:15;7.35;;;6.15;;
18716;SDS011;9487;50.892;6.906;2023-07-09T09:53:45;6.72;;;5.72;;
18716;SDS011;9487;50.892;6.906;2023-07-09T09:58:51;6.88;;;5.90;;
18716;SDS011;9487;50.892;6.906;2023-07-09T10:01:21;6.93;;;6.13;;
18716;SDS011;9487;50.892;6.906;2023-07-09T10:03:54;6.20;;;5.60;;
18716;SDS011;9487;50.892;6.906;2023-07-09T10:06:24;7.57;;;6.13;;
18716;SDS011;9487;50.892;6.906;2023-07-09T10:09:00;6.60;;;5.68;;
18716;SDS011;9487;50.892;6.906;2023-07-09T10:11:37;7.93;;;6.43;;
18716;SDS011;9487;50.892;6.906;2023-07-09T10:14:14;7.57;;;6.00;;
18716;SDS011;9487;50.892;6.906;2023-07-09T10:17:00;6.53;;;5.93;;
18716;SDS011;9487;50.892;6.906;2023-07-09T10:19:39;6.57;;;5.90;;
18716;SDS011;9487;50.892;6.906;2023-07-09T10:22:16;6.72;;;5.57;;
18716;SDS011;9487;50.892;6.906;2023-07-09T10:24:52;7.43;;;5.75;;
18716;SDS011;9487;50.892;6.906;2023-07-09T10:27:29;6.07;;;5.57;;
18716;SDS011;9487;50.892;6.906;2023-07-09T10:30:04;6.95;;;5.82;;
18716;SDS011;9487;50.892;6.906;2023-07-09T10:32:48;7.55;;;5.90;;
18716;SDS011;9487;50.892;6.906;2023-07-09T10:35:29;5.97;;;5.38;;
18716;SDS011;9487;50.892;6.906;2023-07-09T10:38:09;6.70;;;6.10;;
18716;SDS011;9487;50.892;6.906;2023-07-09T10:40:49;6.10;;;5.50;;
18716;SDS011;9487;50.892;6.906;2023-07-09T10:43:21;9.23;;;6.18;;
18716;SDS011;9487;50.892;6.906;2023-07-09T10:45:56;6.65;;;5.30;;
18716;SDS011;9487;50.892;6.906;2023-07-09T10:48:31;6.93;;;5.45;;
18716;SDS011;9487;50.892;6.906;2023-07-09T10:51:01;6.60;;;5.68;;
18716;SDS011;9487;50.892;6.906;2023-07-09T10:53:31;6.97;;;5.40;;
18716;SDS011;9487;50.892;6.906;2023-07-09T10:56:04;6.57;;;5.90;;
18716;SDS011;9487;50.892;6.906;2023-07-09T10:58:39;8.95;;;6.63;;
18716;SDS011;9487;50.892;6.906;2023-07-09T11:01:13;5.82;;;5.32;;
18716;SDS011;9487;50.892;6.906;2023-07-09T11:03:42;8.90;;;6.20;;
18716;SDS011;9487;50.892;6.906;2023-07-09T11:06:18;7.22;;;5.22;;
18716;SDS011;9487;50.892;6.906;2023-07-09T11:08:48;6.60;;;5.18;;
18716;SDS011;9487;50.892;6.906;2023-07-09T11:11:21;9.27;;;8.18;;
18716;SDS011;9487;50.892;6.906;2023-07-09T11:13:58;9.23;;;8.38;;
18716;SDS011;9487;50.892;6.906;2023-07-09T11:16:31;7.13;;;6.00;;
18716;SDS011;9487;50.892;6.906;2023-07-09T11:19:04;6.30;;;5.53;;
18716;SDS011;9487;50.892;6.906;2023-07-09T11:21:40;6.50;;;5.55;;
18716;SDS011;9487;50.892;6.906;2023-07-09T11:24:25;5.75;;;5.18;;
18716;SDS011;9487;50.892;6.906;2023-07-09T11:26:56;5.80;;;4.20;;
18716;SDS011;9487;50.892;6.906;2023-07-09T11:29:25;5.75;;;4.57;;
18716;SDS011;9487;50.892;6.906;2023-07-09T11:31:52;5.38;;;4.88;;
18716;SDS011;9487;50.892;6.906;2023-07-09T11:34:19;6.78;;;4.40;;
18716;SDS011;9487;50.892;6.906;2023-07-09T11:36:49;7.20;;;4.70;;
18716;SDS011;9487;50.892;6.906;2023-07-09T11:39:18;5.18;;;4.35;;
18716;SDS011;9487;50.892;6.906;2023-07-09T11:41:47;5.18;;;4.60;;
18716;SDS011;9487;50.892;6.906;2023-07-09T11:44:16;7.82;;;4.50;;
18716;SDS011;9487;50.892;6.906;2023-07-09T11:49:45;5.70;;;4.05;;
18716;SDS011;9487;50.892;6.906;2023-07-09T11:52:20;4.57;;;4.10;;
18716;SDS011;9487;50.892;6.906;2023-07-09T11:54:52;5.30;;;4.38;;
18716;SDS011;9487;50.892;6.906;2023-07-09T11:57:19;5.90;;;3.85;;
18716;SDS011;9487;50.892;6.906;2023-07-09T11:59:46;8.00;;;4.60;;
18716;SDS011;9487;50.892;6.906;2023-07-09T12:02:15;6.40;;;4.72;;
18716;SDS011;9487;50.892;6.906;2023-07-09T12:04:47;6.07;;;4.65;;
18716;SDS011;9487;50.892;6.906;2023-07-09T12:07:16;5.78;;;5.10;;
18716;SDS011;9487;50.892;6.906;2023-07-09T12:09:48;6.03;;;4.78;;
18716;SDS011;9487;50.892;6.906;2023-07-09T12:12:17;5.95;;;4.45;;
18716;SDS011;9487;50.892;6.906;2023-07-09T12:14:45;4.97;;;4.38;;
18716;SDS011;9487;50.892;6.906;2023-07-09T12:17:13;6.00;;;4.40;;
18716;SDS011;9487;50.892;6.906;2023-07-09T12:19:40;5.40;;;4.53;;
18716;SDS011;9487;50.892;6.906;2023-07-09T12:22:18;6.53;;;4.72;;
18716;SDS011;9487;50.892;6.906;2023-07-09T12:24:47;6.10;;;4.15;;
18716;SDS011;9487;50.892;6.906;2023-07-09T12:27:17;6.68;;;5.10;;
18716;SDS011;9487;50.892;6.906;2023-07-09T12:29:46;6.00;;;4.68;;
18716;SDS011;9487;50.892;6.906;2023-07-09T12:32:13;5.93;;;4.90;;
18716;SDS011;9487;50.892;6.906;2023-07-09T12:34:41;5.57;;;4.68;;
18716;SDS011;9487;50.892;6.906;2023-07-09T12:37:12;5.45;;;4.45;;
18716;SDS011;9487;50.892;6.906;2023-07-09T12:39:42;6.60;;;4.85;;
18716;SDS011;9487;50.892;6.906;2023-07-09T12:42:14;5.15;;;4.65;;
18716;SDS011;9487;50.892;6.906;2023-07-09T12:44:44;5.10;;;4.50;;
18716;SDS011;9487;50.892;6.906;2023-07-09T12:47:14;5.28;;;4.45;;
18716;SDS011;9487;50.892;6.906;2023-07-09T12:49:42;5.68;;;4.70;;
18716;SDS011;9487;50.892;6.906;2023-07-09T12:52:13;5.97;;;4.68;;
18716;SDS011;9487;50.892;6.906;2023-07-09T12:54:52;5.20;;;4.70;;
18716;SDS011;9487;50.892;6.906;2023-07-09T12:57:22;7.00;;;4.40;;
18716;SDS011;9487;50.892;6.906;2023-07-09T12:59:50;4.97;;;4.47;;
18716;SDS011;9487;50.892;6.906;2023-07-09T13:02:18;5.45;;;4.95;;
18716;SDS011;9487;50.892;6.906;2023-07-09T13:04:48;6.10;;;5.43;;
18716;SDS011;9487;50.892;6.906;2023-07-09T13:07:27;4.82;;;4.43;;
18716;SDS011;9487;50.892;6.906;2023-07-09T13:10:03;5.38;;;4.82;;
18716;SDS011;9487;50.892;6.906;2023-07-09T13:12:32;5.20;;;4.68;;
18716;SDS011;9487;50.892;6.906;2023-07-09T13:15:00;5.75;;;4.78;;
18716;SDS011;9487;50.892;6.906;2023-07-09T13:17:29;7.32;;;4.78;;
18716;SDS011;9487;50.892;6.906;2023-07-09T13:19:57;6.55;;;4.70;;
18716;SDS011;9487;50.892;6.906;2023-07-09T13:22:24;5.70;;;4.55;;
18716;SDS011;9487;50.892;6.906;2023-07-09T13:24:51;5.75;;;5.13;;
18716;SDS011;9487;50.892;6.906;2023-07-09T13:27:20;4.43;;;4.03;;
18716;SDS011;9487;50.892;6.906;2023-07-09T13:29:46;5.43;;;4.88;;
18716;SDS011;9487;50.892;6.906;2023-07-09T13:32:14;7.10;;;4.82;;
18716;SDS011;9487;50.892;6.906;2023-07-09T13:34:42;6.60;;;4.32;;
18716;SDS011;9487;50.892;6.906;2023-07-09T13:37:11;4.88;;;4.07;;
18716;SDS011;9487;50.892;6.906;2023-07-09T13:39:39;5.60;;;4.47;;
18716;SDS011;9487;50.892;6.906;2023-07-09T13:42:09;5.47;;;4.43;;
18716;SDS011;9487;50.892;6.906;2023-07-09T13:44:40;5.68;;;4.60;;
18716;SDS011;9487;50.892;6.906;2023-07-09T13:47:10;6.38;;;4.60;;
18716;SDS011;9487;50.892;6.906;2023-07-09T13:49:40;5.55;;;4.50;;
18716;SDS011;9487;50.892;6.906;2023-07-09T13:52:08;7.40;;;5.05;;
18716;SDS011;9487;50.892;6.906;2023-07-09T13:54:41;5.30;;;4.70;;
18716;SDS011;9487;50.892;6.906;2023-07-09T13:57:10;5.57;;;4.55;;
18716;SDS011;9487;50.892;6.906;2023-07-09T13:59:41;6.85;;;4.60;;
18716;SDS011;9487;50.892;6.906;2023-07-09T14:02:16;6.05;;;4.47;;
18716;SDS011;9487;50.892;6.906;2023-07-09T14:04:46;5.53;;;4.25;;
18716;SDS011;9487;50.892;6.906;2023-07-09T14:07:17;5.53;;;4.53;;
18716;SDS011;9487;50.892;6.906;2023-07-09T14:09:51;10.98;;;4.80;;
18716;SDS011;9487;50.892;6.906;2023-07-09T14:12:18;11.32;;;5.00;;
18716;SDS011;9487;50.892;6.906;2023-07-09T14:14:47;6.18;;;4.57;;
18716;SDS011;9487;50.892;6.906;2023-07-09T14:17:16;11.60;;;5.10;;
18716;SDS011;9487;50.892;6.906;2023-07-09T14:19:44;8.05;;;4.28;;
18716;SDS011;9487;50.892;6.906;2023-07-09T14:22:22;4.80;;;4.07;;
18716;SDS011;9487;50.892;6.906;2023-07-09T14:24:54;7.30;;;4.68;;
18716;SDS011;9487;50.892;6.906;2023-07-09T14:27:21;8.38;;;4.47;;
18716;SDS011;9487;50.892;6.906;2023-07-09T14:29:49;6.55;;;4.32;;
18716;SDS011;9487;50.892;6.906;2023-07-09T14:35:10;6.88;;;3.92;;
18716;SDS011;9487;50.892;6.906;2023-07-09T14:37:38;7.50;;;4.32;;
18716;SDS011;9487;50.892;6.906;2023-07-09T14:40:06;10.20;;;5.07;;
18716;SDS011;9487;50.892;6.906;2023-07-09T14:42:34;12.93;;;5.95;;
18716;SDS011;9487;50.892;6.906;2023-07-09T14:45:03;9.70;;;5.15;;
18716;SDS011;9487;50.892;6.906;2023-07-09T14:47:31;7.60;;;5.30;;
18716;SDS011;9487;50.892;6.906;2023-07-09T14:49:58;10.50;;;5.85;;
18716;SDS011;9487;50.892;6.906;2023-07-09T14:52:25;7.40;;;5.65;;
18716;SDS011;9487;50.892;6.906;2023-07-09T14:54:52;10.43;;;5.90;;
18716;SDS011;9487;50.892;6.906;2023-07-09T14:57:19;8.43;;;6.25;;
18716;SDS011;9487;50.892;6.906;2023-07-09T14:59:47;10.38;;;6.85;;
18716;SDS011;9487;50.892;6.906;2023-07-09T15:02:24;8.60;;;6.22;;
18716;SDS011;9487;50.892;6.906;2023-07-09T15:05:00;7.18;;;6.10;;
18716;SDS011;9487;50.892;6.906;2023-07-09T15:07:27;8.10;;;5.78;;
18716;SDS011;9487;50.892;6.906;2023-07-09T15:09:55;6.60;;;5.88;;
18716;SDS011;9487;50.892;6.906;2023-07-09T15:12:24;9.70;;;6.38;;
18716;SDS011;9487;50.892;6.906;2023-07-09T15:14:55;8.88;;;6.03;;
18716;SDS011;9487;50.892;6.906;2023-07-09T15:17:28;7.20;;;6.50;;
18716;SDS011;9487;50.892;6.906;2023-07-09T15:19:55;10.40;;;7.20;;
18716;SDS011;9487;50.892;6.906;2023-07-09T15:22:26;8.60;;;7.70;;
18716;SDS011;9487;50.892;6.906;2023-07-09T15:24:56;11.65;;;9.07;;